createdAt,value
2023-04-16T00:02:08.919Z,102707.38
2023-04-16T00:04:35.711Z,102718.06
2023-04-16T00:07:02.524Z,102705.75
2023-04-16T00:09:29.166Z,102707.56
2023-04-16T00:11:56.171Z,102699.47
2023-04-16T00:14:22.776Z,102698.56
2023-04-16T00:16:49.450Z,102679.78
2023-04-16T00:19:20.963Z,102710.56
2023-04-16T00:21:50.210Z,102705.34
2023-04-16T00:24:16.871Z,102703.63
2023-04-16T00:26:45.269Z,102706.06
2023-04-16T00:29:12.512Z,102696.97
2023-04-16T00:31:39.147Z,102713.16
2023-04-16T00:34:05.887Z,102715.75
2023-04-16T00:36:32.519Z,102709.66
2023-04-16T00:38:59.116Z,102706.13
2023-04-16T00:41:26.306Z,102684.66
2023-04-16T00:43:53.295Z,102699.94
2023-04-16T00:46:23.659Z,102706.13
2023-04-16T00:48:51.759Z,102700.66
2023-04-16T00:51:19.204Z,102702.38
2023-04-16T00:53:46.670Z,102708.38
2023-04-16T00:56:17.528Z,102696.66
2023-04-16T00:58:44.935Z,102688.94
2023-04-16T01:01:11.769Z,102679.88
2023-04-16T01:03:41.293Z,102703.97
2023-04-16T01:06:08.214Z,102692.16
2023-04-16T01:08:34.891Z,102708.16
2023-04-16T01:11:04.803Z,102690.34
2023-04-16T01:13:34.171Z,102704.66
2023-04-16T01:16:01.371Z,102704.66
2023-04-16T01:18:28.053Z,102676.88
2023-04-16T01:20:57.074Z,102705.56
2023-04-16T01:23:23.750Z,102684.16
2023-04-16T01:25:50.359Z,102675.19
2023-04-16T01:28:17.102Z,102684.16
2023-04-16T01:30:46.244Z,102679.94
2023-04-16T01:33:14.400Z,102693.38
2023-04-16T01:35:42.224Z,102691.56
2023-04-16T01:38:11.502Z,102688.94
2023-04-16T01:40:38.254Z,102685.75
2023-04-16T01:43:07.730Z,102688.38
2023-04-16T01:45:38.802Z,102684.56
2023-04-16T01:48:05.755Z,102691.91
2023-04-16T01:50:32.474Z,102696.16
2023-04-16T01:52:59.141Z,102693.66
2023-04-16T01:55:25.891Z,102689.28
2023-04-16T01:57:54.752Z,102696.38
2023-04-16T02:00:23.697Z,102689.28
2023-04-16T02:02:50.528Z,102696.06
2023-04-16T02:05:17.273Z,102688.00
2023-04-16T02:07:46.132Z,102689.59
2023-04-16T02:10:12.764Z,102694.91
2023-04-16T02:12:39.444Z,102691.59
2023-04-16T02:15:06.618Z,102694.09
2023-04-16T02:17:33.254Z,102687.16
2023-04-16T02:20:05.696Z,102678.09
2023-04-16T02:22:35.451Z,102686.09
2023-04-16T02:25:04.296Z,102668.88
2023-04-16T02:27:33.216Z,102677.69
2023-04-16T02:30:04.393Z,102681.00
2023-04-16T02:32:31.295Z,102695.09
2023-04-16T02:34:57.922Z,102679.00
2023-04-16T02:37:25.970Z,102691.88
2023-04-16T02:39:53.502Z,102693.81
2023-04-16T02:42:20.109Z,102662.09
2023-04-16T02:44:46.771Z,102692.97
2023-04-16T02:47:13.386Z,102686.78
2023-04-16T02:49:40.000Z,102691.72
2023-04-16T02:52:06.618Z,102696.00
2023-04-16T02:54:33.192Z,102695.72
2023-04-16T02:56:59.800Z,102697.00
2023-04-16T02:59:28.815Z,102700.31
2023-04-16T03:01:55.695Z,102701.81
2023-04-16T03:04:22.456Z,102706.81
2023-04-16T03:06:49.376Z,102688.81
2023-04-16T03:09:16.146Z,102707.50
2023-04-16T03:11:42.720Z,102684.50
2023-04-16T03:14:09.490Z,102679.53
2023-04-16T03:16:38.556Z,102681.41
2023-04-16T03:19:05.177Z,102697.50
2023-04-16T03:21:31.968Z,102689.59
2023-04-16T03:23:58.584Z,102692.28
2023-04-16T03:26:25.307Z,102690.31
2023-04-16T03:28:51.967Z,102687.59
2023-04-16T03:31:18.660Z,102691.00
2023-04-16T03:33:45.838Z,102671.19
2023-04-16T03:36:14.633Z,102672.00
2023-04-16T03:38:43.655Z,102689.81
2023-04-16T03:41:10.275Z,102688.72
2023-04-16T03:43:36.902Z,102674.00
2023-04-16T03:46:03.661Z,102678.81
2023-04-16T03:48:30.553Z,102674.09
2023-04-16T03:50:57.219Z,102675.69
2023-04-16T03:53:23.903Z,102678.38
2023-04-16T03:55:54.108Z,102683.09
2023-04-16T03:58:21.209Z,102673.63
2023-04-16T04:00:47.899Z,102664.00
2023-04-16T04:03:22.427Z,102676.81
2023-04-16T04:05:49.164Z,102656.41
2023-04-16T04:08:15.867Z,102675.31
2023-04-16T04:10:42.437Z,102676.31
2023-04-16T04:13:11.449Z,102676.50
2023-04-16T04:15:38.091Z,102648.63
2023-04-16T04:18:04.728Z,102684.41
2023-04-16T04:20:31.391Z,102687.72
2023-04-16T04:22:58.220Z,102683.13
2023-04-16T04:25:25.153Z,102684.22
2023-04-16T04:27:51.796Z,102683.91
2023-04-16T04:30:18.442Z,102663.59
2023-04-16T04:32:45.114Z,102687.22
2023-04-16T04:35:11.756Z,102692.59
2023-04-16T04:37:38.458Z,102694.19
2023-04-16T04:40:05.728Z,102693.59
2023-04-16T04:42:34.553Z,102698.00
2023-04-16T04:45:01.160Z,102656.00
2023-04-16T04:47:27.755Z,102691.00
2023-04-16T04:49:54.397Z,102701.59
2023-04-16T04:52:21.086Z,102696.41
2023-04-16T04:54:47.678Z,102695.50
2023-04-16T04:57:14.369Z,102697.91
2023-04-16T04:59:41.220Z,102680.91
2023-04-16T05:02:07.987Z,102701.50
2023-04-16T05:04:34.755Z,102706.81
2023-04-16T05:07:02.501Z,102710.22
2023-04-16T05:09:31.545Z,102707.69
2023-04-16T05:11:58.468Z,102708.63
2023-04-16T05:14:25.112Z,102685.91
2023-04-16T05:16:51.689Z,102684.78
2023-04-16T05:19:20.632Z,102699.88
2023-04-16T05:21:47.257Z,102707.69
2023-04-16T05:24:14.974Z,102705.31
2023-04-16T05:26:46.591Z,102711.50
2023-04-16T05:29:13.220Z,102684.78
2023-04-16T05:31:39.975Z,102708.59
2023-04-16T05:34:06.577Z,102687.41
2023-04-16T05:36:33.161Z,102681.13
2023-04-16T05:38:59.794Z,102703.22
2023-04-16T05:41:26.409Z,102712.91
2023-04-16T05:43:52.982Z,102671.19
2023-04-16T05:46:19.685Z,102677.50
2023-04-16T05:48:48.551Z,102694.91
2023-04-16T05:51:17.524Z,102717.47
2023-04-16T05:53:44.149Z,102716.88
2023-04-16T05:56:10.770Z,102719.66
2023-04-16T05:58:42.173Z,102723.38
2023-04-16T06:01:08.792Z,102700.34
2023-04-16T06:03:35.852Z,102722.94
2023-04-16T06:06:04.928Z,102715.16
2023-04-16T06:08:31.734Z,102724.16
2023-04-16T06:11:00.893Z,102716.34
2023-04-16T06:13:27.455Z,102717.53
2023-04-16T06:15:54.214Z,102695.66
2023-04-16T06:18:23.550Z,102722.91
2023-04-16T06:20:50.349Z,102728.06
2023-04-16T06:23:21.853Z,102724.72
2023-04-16T06:25:48.586Z,102726.72
2023-04-16T06:28:15.375Z,102728.63
2023-04-16T06:30:43.992Z,102735.34
2023-04-16T06:33:11.366Z,102736.69
2023-04-16T06:35:37.971Z,102742.94
2023-04-16T06:38:04.589Z,102739.81
2023-04-16T06:40:31.313Z,102729.44
2023-04-16T06:42:57.893Z,102735.94
2023-04-16T06:45:24.812Z,102728.03
2023-04-16T06:47:52.473Z,102747.81
2023-04-16T06:50:19.227Z,102734.00
2023-04-16T06:52:46.380Z,102725.56
2023-04-16T06:55:15.597Z,102704.88
2023-04-16T06:57:44.287Z,102734.13
2023-04-16T07:00:11.949Z,102738.69
2023-04-16T07:02:38.703Z,102744.28
2023-04-16T07:05:05.902Z,102721.97
2023-04-16T07:07:34.792Z,102743.03
2023-04-16T07:10:01.369Z,102717.41
2023-04-16T07:12:28.162Z,102739.63
2023-04-16T07:14:54.764Z,102738.28
2023-04-16T07:17:23.740Z,102746.72
2023-04-16T07:19:53.184Z,102743.47
2023-04-16T07:22:24.927Z,102719.75
2023-04-16T07:24:51.512Z,102715.69
2023-04-16T07:27:20.506Z,102720.38
2023-04-16T07:29:47.155Z,102734.59
2023-04-16T07:32:15.436Z,102728.28
2023-04-16T07:34:44.879Z,102707.69
2023-04-16T07:37:11.482Z,102717.22
2023-04-16T07:39:38.074Z,102713.22
2023-04-16T07:42:04.791Z,102735.91
2023-04-16T07:44:31.721Z,102731.66
2023-04-16T07:46:58.567Z,102746.22
2023-04-16T07:49:27.363Z,102740.28
2023-04-16T07:51:53.987Z,102740.53
2023-04-16T07:54:20.951Z,102730.09
2023-04-16T07:56:49.991Z,102748.25
2023-04-16T07:59:22.817Z,102734.19
2023-04-16T08:01:52.373Z,102753.16
2023-04-16T08:04:24.833Z,102755.75
2023-04-16T08:06:52.394Z,102754.78
2023-04-16T08:09:23.764Z,102750.34
2023-04-16T08:11:50.942Z,102767.19
2023-04-16T08:14:20.018Z,102759.25
2023-04-16T08:16:49.342Z,102758.19
2023-04-16T08:19:16.222Z,102758.84
2023-04-16T08:21:45.216Z,102771.34
2023-04-16T08:24:12.026Z,102756.72
2023-04-16T08:26:38.767Z,102771.34
2023-04-16T08:29:07.900Z,102754.19
2023-04-16T08:31:34.741Z,102777.91
2023-04-16T08:34:03.810Z,102779.88
2023-04-16T08:36:31.421Z,102778.97
2023-04-16T08:38:58.312Z,102764.44
2023-04-16T08:41:27.066Z,102780.38
2023-04-16T08:44:02.458Z,102757.25
2023-04-16T08:46:29.984Z,102793.19
2023-04-16T08:49:01.128Z,102788.78
2023-04-16T08:51:32.475Z,102787.97
2023-04-16T08:54:12.075Z,102796.72
2023-04-16T08:56:43.072Z,102796.28
2023-04-16T08:59:10.240Z,102792.38
2023-04-16T09:01:39.104Z,102798.03
2023-04-16T09:04:07.357Z,102805.63
2023-04-16T09:06:36.628Z,102801.72
2023-04-16T09:09:05.788Z,102802.03
2023-04-16T09:11:32.584Z,102808.00
2023-04-16T09:14:02.053Z,102806.31
2023-04-16T09:16:33.588Z,102805.22
2023-04-16T09:19:00.425Z,102810.63
2023-04-16T09:21:28.066Z,102744.78
2023-04-16T09:23:55.312Z,102807.19
2023-04-16T09:26:22.734Z,102805.13
2023-04-16T09:28:51.970Z,102819.78
2023-04-16T09:31:19.876Z,102807.56
2023-04-16T09:34:06.092Z,102819.03
2023-04-16T09:36:33.829Z,102827.84
2023-04-16T09:39:00.774Z,102813.88
2023-04-16T09:41:33.311Z,102824.13
2023-04-16T09:44:05.223Z,102824.72
2023-04-16T09:46:35.645Z,102821.78
2023-04-16T09:49:10.390Z,102824.13
2023-04-16T09:51:38.378Z,102828.09
2023-04-16T09:54:05.861Z,102833.78
2023-04-16T09:56:40.212Z,102819.78
2023-04-16T09:59:07.099Z,102808.63
2023-04-16T10:01:36.067Z,102839.81
2023-04-16T10:04:06.940Z,102837.09
2023-04-16T10:06:33.803Z,102840.69
2023-04-16T10:09:00.469Z,102820.25
2023-04-16T10:11:32.973Z,102835.69
2023-04-16T10:13:59.622Z,102813.34
2023-04-16T10:16:26.794Z,102841.44
2023-04-16T10:18:54.469Z,102838.34
2023-04-16T10:21:21.627Z,102838.88
2023-04-16T10:23:54.145Z,102834.31
2023-04-16T10:26:21.936Z,102826.81
2023-04-16T10:28:48.765Z,102827.34
2023-04-16T10:31:15.816Z,102836.63
2023-04-16T10:33:46.293Z,102829.72
2023-04-16T10:36:15.100Z,102829.13
2023-04-16T10:38:46.389Z,102830.28
2023-04-16T10:41:13.648Z,102834.06
2023-04-16T10:43:47.611Z,102831.75
2023-04-16T10:46:26.814Z,102831.88
2023-04-16T10:48:57.453Z,102831.88
2023-04-16T10:51:31.766Z,102793.34
2023-04-16T10:54:19.445Z,102825.03
2023-04-16T10:56:46.960Z,102831.97
2023-04-16T10:59:13.909Z,102827.75
2023-04-16T11:01:45.519Z,102832.25
2023-04-16T11:04:22.072Z,102828.13
2023-04-16T11:07:17.108Z,102827.59
2023-04-16T11:09:47.131Z,102829.72
2023-04-16T11:12:16.176Z,102824.66
2023-04-16T11:14:43.284Z,102825.66
2023-04-16T11:17:10.307Z,102827.63
2023-04-16T11:19:39.833Z,102832.25
2023-04-16T11:22:06.664Z,102832.50
2023-04-16T11:24:36.194Z,102828.47
2023-04-16T11:27:03.231Z,102803.31
2023-04-16T11:29:29.853Z,102822.00
2023-04-16T11:31:56.592Z,102821.09
2023-04-16T11:34:23.320Z,102776.34
2023-04-16T11:36:51.773Z,102821.94
2023-04-16T11:39:21.565Z,102816.34
2023-04-16T11:41:49.962Z,102814.25
2023-04-16T11:44:17.412Z,102803.78
2023-04-16T11:46:44.197Z,102801.53
2023-04-16T11:49:15.646Z,102819.63
2023-04-16T11:51:44.335Z,102809.22
2023-04-16T11:54:19.550Z,102815.53
2023-04-16T11:56:48.006Z,102809.56
2023-04-16T11:59:17.701Z,102810.50
2023-04-16T12:01:57.520Z,102812.31
2023-04-16T12:04:29.578Z,102810.66
2023-04-16T12:07:12.826Z,102810.69
2023-04-16T12:09:41.717Z,102806.31
2023-04-16T12:12:27.483Z,102815.31
2023-04-16T12:14:56.979Z,102805.22
2023-04-16T12:17:26.367Z,102801.75
2023-04-16T12:19:56.858Z,102811.63
2023-04-16T12:22:46.909Z,102823.22
2023-04-16T12:25:14.895Z,102819.00
2023-04-16T12:27:54.071Z,102803.16
2023-04-16T12:30:26.524Z,102816.56
2023-04-16T12:33:18.538Z,102821.09
2023-04-16T12:35:47.970Z,102806.06
2023-04-16T12:38:17.543Z,102788.06
2023-04-16T12:40:44.532Z,102788.19
2023-04-16T12:43:11.271Z,102814.22
2023-04-16T12:45:39.304Z,102813.50
2023-04-16T12:48:09.359Z,102803.78
2023-04-16T12:50:39.841Z,102813.56
2023-04-16T12:53:06.669Z,102816.31
2023-04-16T12:55:36.109Z,102797.66
2023-04-16T12:58:02.840Z,102815.75
2023-04-16T13:00:29.465Z,102791.00
2023-04-16T13:02:56.266Z,102818.88
2023-04-16T13:05:22.997Z,102817.13
2023-04-16T13:07:52.044Z,102805.38
2023-04-16T13:10:21.101Z,102809.88
2023-04-16T13:12:47.864Z,102819.75
2023-04-16T13:15:17.005Z,102809.25
2023-04-16T13:17:45.066Z,102776.09
2023-04-16T13:20:11.892Z,102818.69
2023-04-16T13:22:42.784Z,102781.13
2023-04-16T13:25:09.971Z,102776.78
2023-04-16T13:27:36.629Z,102786.59
2023-04-16T13:30:03.414Z,102804.56
2023-04-16T13:32:30.107Z,102814.28
2023-04-16T13:34:56.837Z,102797.38
2023-04-16T13:37:25.971Z,102803.72
2023-04-16T13:39:52.655Z,102809.06
2023-04-16T13:42:19.283Z,102805.63
2023-04-16T13:44:48.970Z,102793.16
2023-04-16T13:47:16.174Z,102795.09
2023-04-16T13:49:42.830Z,102799.66
2023-04-16T13:52:09.466Z,102787.19
2023-04-16T13:54:38.712Z,102789.69
2023-04-16T13:57:05.361Z,102780.69
2023-04-16T13:59:32.037Z,102800.97
2023-04-16T14:02:00.798Z,102794.63
2023-04-16T14:04:27.482Z,102796.38
2023-04-16T14:06:54.238Z,102798.94
2023-04-16T14:09:23.467Z,102794.91
2023-04-16T14:11:51.083Z,102794.78
2023-04-16T14:14:17.731Z,102797.31
2023-04-16T14:16:44.646Z,102792.66
2023-04-16T14:19:11.686Z,102804.97
2023-04-16T14:21:38.519Z,102803.88
2023-04-16T14:24:09.224Z,102797.47
2023-04-16T14:26:36.049Z,102807.13
2023-04-16T14:29:02.712Z,102790.22
2023-04-16T14:31:29.441Z,102808.78
2023-04-16T14:33:56.029Z,102772.09
2023-04-16T14:36:23.312Z,102783.78
2023-04-16T14:38:49.946Z,102761.41
2023-04-16T14:41:18.867Z,102778.25
2023-04-16T14:43:45.579Z,102753.19
2023-04-16T14:46:12.479Z,102778.06
2023-04-16T14:48:41.520Z,102784.00
2023-04-16T14:51:08.735Z,102765.81
2023-04-16T14:53:37.634Z,102788.84
2023-04-16T14:56:05.972Z,102780.94
2023-04-16T14:58:32.723Z,102787.09
2023-04-16T15:00:59.521Z,102768.47
2023-04-16T15:03:26.753Z,102749.63
2023-04-16T15:05:56.434Z,102769.16
2023-04-16T15:08:23.955Z,102770.19
2023-04-16T15:10:55.971Z,102764.66
2023-04-16T15:13:22.572Z,102742.25
2023-04-16T15:15:49.950Z,102758.34
2023-04-16T15:18:17.402Z,102742.19
2023-04-16T15:20:46.415Z,102762.63
2023-04-16T15:23:15.569Z,102764.19
2023-04-16T15:25:46.934Z,102746.16
2023-04-16T15:28:13.566Z,102747.75
2023-04-16T15:30:44.555Z,102744.69
2023-04-16T15:33:12.207Z,102747.97
2023-04-16T15:35:41.432Z,102738.41
2023-04-16T15:38:08.605Z,102735.53
2023-04-16T15:40:36.542Z,102739.59
2023-04-16T15:43:03.375Z,102755.31
2023-04-16T15:45:30.108Z,102751.47
2023-04-16T15:47:59.312Z,102745.91
2023-04-16T15:50:28.517Z,102747.34
2023-04-16T15:52:57.701Z,102748.97
2023-04-16T15:55:24.395Z,102746.88
2023-04-16T15:57:51.517Z,102737.81
2023-04-16T16:00:19.067Z,102716.13
2023-04-16T16:02:47.112Z,102718.44
2023-04-16T16:05:17.172Z,102727.50
2023-04-16T16:07:43.987Z,102728.31
2023-04-16T16:10:13.028Z,102729.97
2023-04-16T16:12:41.253Z,102737.66
2023-04-16T16:15:11.144Z,102730.31
2023-04-16T16:17:38.406Z,102732.84
2023-04-16T16:20:10.546Z,102736.94
2023-04-16T16:22:38.235Z,102725.06
2023-04-16T16:25:05.924Z,102739.34
2023-04-16T16:27:36.345Z,102731.91
2023-04-16T16:30:04.805Z,102738.13
2023-04-16T16:32:31.491Z,102736.22
2023-04-16T16:34:58.126Z,102740.88
2023-04-16T16:37:24.917Z,102737.41
2023-04-16T16:39:54.064Z,102745.47
2023-04-16T16:42:20.931Z,102716.88
2023-04-16T16:44:50.617Z,102741.72
2023-04-16T16:47:17.365Z,102742.63
2023-04-16T16:49:44.692Z,102746.94
2023-04-16T16:52:13.824Z,102735.06
2023-04-16T16:54:40.756Z,102731.56
2023-04-16T16:57:07.361Z,102737.75
2023-04-16T16:59:34.068Z,102738.41
2023-04-16T17:02:03.015Z,102740.88
2023-04-16T17:04:31.870Z,102717.56
2023-04-16T17:07:01.244Z,102739.59
2023-04-16T17:09:30.704Z,102733.50
2023-04-16T17:11:57.494Z,102719.28
2023-04-16T17:14:26.488Z,102735.28
2023-04-16T17:16:53.519Z,102737.81
2023-04-16T17:19:20.165Z,102734.22
2023-04-16T17:21:49.184Z,102710.91
2023-04-16T17:24:15.892Z,102730.66
2023-04-16T17:26:42.689Z,102720.91
2023-04-16T17:29:09.482Z,102733.84
2023-04-16T17:31:36.537Z,102734.38
2023-04-16T17:34:05.961Z,102735.81
2023-04-16T17:36:32.851Z,102732.97
2023-04-16T17:38:59.498Z,102711.22
2023-04-16T17:41:28.693Z,102736.75
2023-04-16T17:43:55.409Z,102743.34
2023-04-16T17:46:22.153Z,102733.91
2023-04-16T17:48:49.007Z,102740.75
2023-04-16T17:51:16.674Z,102725.97
2023-04-16T17:53:43.622Z,102739.16
2023-04-16T17:56:11.326Z,102738.81
2023-04-16T17:58:37.965Z,102733.41
2023-04-16T18:01:06.844Z,102722.25
2023-04-16T18:03:37.134Z,102738.25
2023-04-16T18:06:04.204Z,102735.38
2023-04-16T18:08:31.266Z,102705.56
2023-04-16T18:10:57.960Z,102716.19
2023-04-16T18:13:27.323Z,102731.22
2023-04-16T18:15:54.237Z,102733.56
2023-04-16T18:18:21.481Z,102707.16
2023-04-16T18:20:48.187Z,102724.13
2023-04-16T18:23:14.940Z,102716.59
2023-04-16T18:25:41.889Z,102732.50
2023-04-16T18:28:13.874Z,102734.00
2023-04-16T18:30:41.046Z,102729.31
2023-04-16T18:33:38.840Z,102725.28
2023-04-16T18:36:02.398Z,102722.38
2023-04-16T18:38:32.144Z,102721.41
2023-04-16T18:41:02.061Z,102702.13
2023-04-16T18:43:28.795Z,102721.56
2023-04-16T18:45:55.416Z,102722.81
2023-04-16T18:48:22.348Z,102726.94
2023-04-16T18:50:51.080Z,102706.16
2023-04-16T18:53:17.758Z,102722.81
2023-04-16T18:55:44.443Z,102724.97
2023-04-16T18:58:11.108Z,102709.31
2023-04-16T19:00:42.654Z,102742.06
2023-04-16T19:03:11.508Z,102740.81
2023-04-16T19:05:38.230Z,102717.06
2023-04-16T19:08:05.188Z,102741.88
2023-04-16T19:10:34.105Z,102718.22
2023-04-16T19:13:03.276Z,102744.00
2023-04-16T19:15:32.037Z,102748.84
2023-04-16T19:17:59.903Z,102751.47
2023-04-16T19:20:28.825Z,102740.53
2023-04-16T19:22:55.689Z,102752.13
2023-04-16T19:25:24.702Z,102728.03
2023-04-16T19:27:51.687Z,102727.81
2023-04-16T19:30:18.485Z,102745.75
2023-04-16T19:32:47.612Z,102750.09
2023-04-16T19:35:14.378Z,102760.53
2023-04-16T19:37:43.594Z,102756.03
2023-04-16T19:40:10.966Z,102744.03
2023-04-16T19:42:37.571Z,102764.63
2023-04-16T19:45:07.430Z,102757.34
2023-04-16T19:47:34.078Z,102742.53
2023-04-16T19:50:00.821Z,102756.75
2023-04-16T19:52:27.486Z,102745.63
2023-04-16T19:54:54.170Z,102771.56
2023-04-16T19:57:20.774Z,102765.91
2023-04-16T19:59:49.752Z,102758.00
2023-04-16T20:02:16.496Z,102761.06
2023-04-16T20:04:43.236Z,102764.34
2023-04-16T20:07:09.918Z,102756.16
2023-04-16T20:09:36.581Z,102766.69
2023-04-16T20:12:05.458Z,102766.53
2023-04-16T20:14:34.624Z,102774.38
2023-04-16T20:17:03.557Z,102773.44
2023-04-16T20:19:31.548Z,102772.28
2023-04-16T20:21:58.161Z,102772.94
2023-04-16T20:24:25.032Z,102756.41
2023-04-16T20:26:51.680Z,102770.16
2023-04-16T20:29:18.429Z,102752.00
2023-04-16T20:31:48.717Z,102750.13
2023-04-16T20:34:15.378Z,102775.91
2023-04-16T20:36:44.344Z,102769.56
2023-04-16T20:39:11.770Z,102778.94
2023-04-16T20:41:43.826Z,102778.84
2023-04-16T20:44:18.118Z,102785.59
2023-04-16T20:46:49.477Z,102794.97
2023-04-16T20:49:18.519Z,102771.69
2023-04-16T20:51:45.181Z,102774.16
2023-04-16T20:54:16.437Z,102780.44
2023-04-16T20:56:45.963Z,102762.66
2023-04-16T20:59:13.498Z,102781.34
2023-04-16T21:01:40.245Z,102779.63
2023-04-16T21:04:09.659Z,102778.09
2023-04-16T21:06:43.238Z,102772.63
2023-04-16T21:09:13.168Z,102760.19
2023-04-16T21:11:39.983Z,102778.09
2023-04-16T21:14:06.902Z,102772.09
2023-04-16T21:16:33.574Z,102756.03
2023-04-16T21:19:02.371Z,102775.59
2023-04-16T21:21:29.305Z,102763.72
2023-04-16T21:23:58.474Z,102760.13
2023-04-16T21:26:25.239Z,102771.63
2023-04-16T21:28:53.305Z,102781.78
2023-04-16T21:31:21.772Z,102773.72
2023-04-16T21:33:50.818Z,102776.38
2023-04-16T21:36:17.452Z,102734.69
2023-04-16T21:38:46.564Z,102753.66
2023-04-16T21:41:13.204Z,102784.16
2023-04-16T21:43:42.001Z,102750.66
2023-04-16T21:46:08.782Z,102769.56
2023-04-16T21:48:35.581Z,102780.72
2023-04-16T21:51:10.146Z,102759.97
2023-04-16T21:53:38.775Z,102761.84
2023-04-16T21:56:06.491Z,102767.06
2023-04-16T21:58:33.151Z,102775.06
2023-04-16T22:01:04.593Z,102782.25
2023-04-16T22:03:31.432Z,102786.38
2023-04-16T22:06:00.928Z,102782.91
2023-04-16T22:08:29.265Z,102781.97
2023-04-16T22:11:00.169Z,102788.19
2023-04-16T22:13:32.610Z,102785.50
2023-04-16T22:16:02.901Z,102787.13
2023-04-16T22:18:32.957Z,102785.22
2023-04-16T22:21:00.377Z,102776.41
2023-04-16T22:23:27.167Z,102773.69
2023-04-16T22:25:56.414Z,102753.66
2023-04-16T22:28:23.610Z,102783.97
2023-04-16T22:30:50.549Z,102775.16
2023-04-16T22:33:17.570Z,102768.66
2023-04-16T22:35:44.749Z,102773.00
2023-04-16T22:38:11.466Z,102770.38
2023-04-16T22:40:38.136Z,102763.00
2023-04-16T22:43:07.120Z,102754.00
2023-04-16T22:45:34.716Z,102769.38
2023-04-16T22:48:01.354Z,102771.91
2023-04-16T22:50:28.620Z,102766.59
2023-04-16T22:53:00.112Z,102759.41
2023-04-16T22:55:29.025Z,102758.47
2023-04-16T22:57:55.656Z,102768.81
2023-04-16T23:00:25.046Z,102765.31
2023-04-16T23:02:53.979Z,102762.44
2023-04-16T23:05:22.890Z,102748.03
2023-04-16T23:07:49.510Z,102766.38
2023-04-16T23:10:16.302Z,102756.50
2023-04-16T23:12:45.551Z,102769.72
2023-04-16T23:15:12.264Z,102737.41
2023-04-16T23:17:43.733Z,102773.00
2023-04-16T23:20:13.386Z,102759.53
2023-04-16T23:22:41.115Z,102768.44
2023-04-16T23:25:15.501Z,102765.63
2023-04-16T23:27:42.184Z,102773.63
2023-04-16T23:30:11.506Z,102756.56
2023-04-16T23:32:38.405Z,102769.06
2023-04-16T23:35:05.697Z,102763.75
2023-04-16T23:37:34.544Z,102758.97
2023-04-16T23:40:04.695Z,102773.44
2023-04-16T23:42:31.308Z,102773.19
2023-04-16T23:45:02.759Z,102772.34
2023-04-16T23:47:29.412Z,102775.69
2023-04-16T23:49:58.529Z,102765.06
2023-04-16T23:52:25.173Z,102775.50
2023-04-16T23:54:51.864Z,102768.81
2023-04-16T23:57:19.219Z,102775.13
2023-04-16T23:59:48.218Z,102746.22
